sensor_id;sensor_type;location;lat;lon;timestamp;P1;durP1;ratioP1;P2;durP2;ratioP2
72639;SDS011;60683;51.730;8.762;2023-03-13T00:00:54;7.53;;;2.03;;
72639;SDS011;60683;51.730;8.762;2023-03-13T00:03:22;12.30;;;2.28;;
72639;SDS011;60683;51.730;8.762;2023-03-13T00:05:55;10.52;;;2.00;;
72639;SDS011;60683;51.730;8.762;2023-03-13T00:08:22;9.60;;;1.63;;
72639;SDS011;60683;51.730;8.762;2023-03-13T00:10:50;4.68;;;1.30;;
72639;SDS011;60683;51.730;8.762;2023-03-13T00:13:17;9.23;;;2.35;;
72639;SDS011;60683;51.730;8.762;2023-03-13T00:15:45;12.02;;;2.50;;
72639;SDS011;60683;51.730;8.762;2023-03-13T00:18:13;11.55;;;2.22;;
72639;SDS011;60683;51.730;8.762;2023-03-13T00:20:40;15.35;;;2.30;;
72639;SDS011;60683;51.730;8.762;2023-03-13T00:23:09;9.57;;;2.03;;
72639;SDS011;60683;51.730;8.762;2023-03-13T00:25:36;9.90;;;2.13;;
72639;SDS011;60683;51.730;8.762;2023-03-13T00:28:04;10.40;;;2.28;;
72639;SDS011;60683;51.730;8.762;2023-03-13T00:30:31;7.97;;;2.20;;
72639;SDS011;60683;51.730;8.762;2023-03-13T00:32:59;9.80;;;2.72;;
72639;SDS011;60683;51.730;8.762;2023-03-13T00:35:26;7.43;;;2.35;;
72639;SDS011;60683;51.730;8.762;2023-03-13T00:37:53;8.32;;;2.15;;
72639;SDS011;60683;51.730;8.762;2023-03-13T00:40:22;6.28;;;1.77;;
72639;SDS011;60683;51.730;8.762;2023-03-13T00:42:50;9.70;;;2.90;;
72639;SDS011;60683;51.730;8.762;2023-03-13T00:45:17;6.80;;;1.45;;
72639;SDS011;60683;51.730;8.762;2023-03-13T00:47:44;7.13;;;1.40;;
72639;SDS011;60683;51.730;8.762;2023-03-13T00:50:12;8.38;;;1.88;;
72639;SDS011;60683;51.730;8.762;2023-03-13T00:52:39;6.47;;;1.60;;
72639;SDS011;60683;51.730;8.762;2023-03-13T00:55:07;11.07;;;2.30;;
72639;SDS011;60683;51.730;8.762;2023-03-13T00:57:36;11.70;;;1.90;;
72639;SDS011;60683;51.730;8.762;2023-03-13T01:00:05;6.30;;;1.50;;
72639;SDS011;60683;51.730;8.762;2023-03-13T01:02:32;6.75;;;2.47;;
72639;SDS011;60683;51.730;8.762;2023-03-13T01:05:00;7.95;;;1.60;;
72639;SDS011;60683;51.730;8.762;2023-03-13T01:07:28;9.18;;;1.83;;
72639;SDS011;60683;51.730;8.762;2023-03-13T01:09:56;7.82;;;1.50;;
72639;SDS011;60683;51.730;8.762;2023-03-13T01:12:23;8.02;;;1.55;;
72639;SDS011;60683;51.730;8.762;2023-03-13T01:14:52;9.38;;;2.25;;
72639;SDS011;60683;51.730;8.762;2023-03-13T01:17:19;8.80;;;1.65;;
72639;SDS011;60683;51.730;8.762;2023-03-13T01:19:47;10.20;;;1.88;;
72639;SDS011;60683;51.730;8.762;2023-03-13T01:22:15;4.78;;;1.67;;
72639;SDS011;60683;51.730;8.762;2023-03-13T01:24:43;4.72;;;1.58;;
72639;SDS011;60683;51.730;8.762;2023-03-13T01:27:10;4.68;;;1.58;;
72639;SDS011;60683;51.730;8.762;2023-03-13T01:29:38;10.85;;;1.77;;
72639;SDS011;60683;51.730;8.762;2023-03-13T01:32:07;17.70;;;2.17;;
72639;SDS011;60683;51.730;8.762;2023-03-13T01:34:35;7.65;;;1.60;;
72639;SDS011;60683;51.730;8.762;2023-03-13T01:37:02;6.93;;;1.40;;
72639;SDS011;60683;51.730;8.762;2023-03-13T01:39:30;5.10;;;1.40;;
72639;SDS011;60683;51.730;8.762;2023-03-13T01:41:57;7.05;;;1.63;;
72639;SDS011;60683;51.730;8.762;2023-03-13T01:44:25;11.32;;;1.98;;
72639;SDS011;60683;51.730;8.762;2023-03-13T01:46:53;7.72;;;1.65;;
72639;SDS011;60683;51.730;8.762;2023-03-13T01:49:23;8.43;;;2.05;;
72639;SDS011;60683;51.730;8.762;2023-03-13T01:51:52;8.10;;;1.92;;
72639;SDS011;60683;51.730;8.762;2023-03-13T01:54:23;8.50;;;2.20;;
72639;SDS011;60683;51.730;8.762;2023-03-13T01:56:53;9.63;;;1.55;;
72639;SDS011;60683;51.730;8.762;2023-03-13T01:59:23;13.52;;;1.58;;
72639;SDS011;60683;51.730;8.762;2023-03-13T02:01:52;4.38;;;1.45;;
72639;SDS011;60683;51.730;8.762;2023-03-13T02:04:20;8.65;;;1.88;;
72639;SDS011;60683;51.730;8.762;2023-03-13T02:06:50;11.63;;;3.15;;
72639;SDS011;60683;51.730;8.762;2023-03-13T02:09:21;6.97;;;1.70;;
72639;SDS011;60683;51.730;8.762;2023-03-13T02:11:51;11.80;;;2.25;;
72639;SDS011;60683;51.730;8.762;2023-03-13T02:14:22;6.47;;;1.55;;
72639;SDS011;60683;51.730;8.762;2023-03-13T02:16:51;9.15;;;1.90;;
72639;SDS011;60683;51.730;8.762;2023-03-13T02:19:23;8.10;;;2.08;;
72639;SDS011;60683;51.730;8.762;2023-03-13T02:21:54;10.55;;;1.90;;
72639;SDS011;60683;51.730;8.762;2023-03-13T02:24:29;5.93;;;1.60;;
72639;SDS011;60683;51.730;8.762;2023-03-13T02:27:01;7.80;;;2.00;;
72639;SDS011;60683;51.730;8.762;2023-03-13T02:29:32;7.88;;;1.52;;
72639;SDS011;60683;51.730;8.762;2023-03-13T02:31:59;4.38;;;1.35;;
72639;SDS011;60683;51.730;8.762;2023-03-13T02:34:29;12.13;;;1.92;;
72639;SDS011;60683;51.730;8.762;2023-03-13T02:36:58;11.27;;;2.03;;
72639;SDS011;60683;51.730;8.762;2023-03-13T02:39:27;13.23;;;1.98;;
72639;SDS011;60683;51.730;8.762;2023-03-13T02:41:55;7.45;;;1.63;;
72639;SDS011;60683;51.730;8.762;2023-03-13T02:44:26;6.47;;;1.83;;
72639;SDS011;60683;51.730;8.762;2023-03-13T02:46:53;8.93;;;1.55;;
72639;SDS011;60683;51.730;8.762;2023-03-13T02:49:23;8.48;;;1.92;;
72639;SDS011;60683;51.730;8.762;2023-03-13T02:51:51;9.77;;;1.92;;
72639;SDS011;60683;51.730;8.762;2023-03-13T02:54:21;5.93;;;1.45;;
72639;SDS011;60683;51.730;8.762;2023-03-13T02:56:52;9.68;;;1.98;;
72639;SDS011;60683;51.730;8.762;2023-03-13T02:59:21;9.82;;;2.03;;
72639;SDS011;60683;51.730;8.762;2023-03-13T03:01:50;4.97;;;1.40;;
72639;SDS011;60683;51.730;8.762;2023-03-13T03:04:19;6.45;;;1.58;;
72639;SDS011;60683;51.730;8.762;2023-03-13T03:06:46;11.85;;;2.08;;
72639;SDS011;60683;51.730;8.762;2023-03-13T03:09:14;9.52;;;1.80;;
72639;SDS011;60683;51.730;8.762;2023-03-13T03:11:42;9.07;;;2.20;;
72639;SDS011;60683;51.730;8.762;2023-03-13T03:14:10;9.73;;;1.92;;
72639;SDS011;60683;51.730;8.762;2023-03-13T03:16:38;10.45;;;2.33;;
72639;SDS011;60683;51.730;8.762;2023-03-13T03:19:07;8.10;;;1.80;;
72639;SDS011;60683;51.730;8.762;2023-03-13T03:21:35;6.40;;;1.95;;
72639;SDS011;60683;51.730;8.762;2023-03-13T03:24:04;9.98;;;1.80;;
72639;SDS011;60683;51.730;8.762;2023-03-13T03:26:31;3.00;;;0.93;;
72639;SDS011;60683;51.730;8.762;2023-03-13T03:28:59;7.95;;;1.58;;
72639;SDS011;60683;51.730;8.762;2023-03-13T03:31:27;9.20;;;1.60;;
72639;SDS011;60683;51.730;8.762;2023-03-13T03:33:55;4.57;;;1.40;;
72639;SDS011;60683;51.730;8.762;2023-03-13T03:36:23;11.07;;;1.60;;
72639;SDS011;60683;51.730;8.762;2023-03-13T03:38:51;5.07;;;1.52;;
72639;SDS011;60683;51.730;8.762;2023-03-13T03:41:19;2.72;;;1.15;;
72639;SDS011;60683;51.730;8.762;2023-03-13T03:43:47;6.55;;;1.40;;
72639;SDS011;60683;51.730;8.762;2023-03-13T03:46:14;8.30;;;2.42;;
72639;SDS011;60683;51.730;8.762;2023-03-13T03:48:42;4.35;;;1.50;;
72639;SDS011;60683;51.730;8.762;2023-03-13T03:51:10;5.80;;;1.40;;
72639;SDS011;60683;51.730;8.762;2023-03-13T03:53:39;14.25;;;1.83;;
72639;SDS011;60683;51.730;8.762;2023-03-13T03:56:07;6.97;;;2.55;;
72639;SDS011;60683;51.730;8.762;2023-03-13T03:58:35;6.50;;;1.33;;
72639;SDS011;60683;51.730;8.762;2023-03-13T04:01:03;6.05;;;1.25;;
72639;SDS011;60683;51.730;8.762;2023-03-13T04:03:31;7.18;;;1.83;;
72639;SDS011;60683;51.730;8.762;2023-03-13T04:05:59;2.72;;;0.80;;
72639;SDS011;60683;51.730;8.762;2023-03-13T04:08:27;6.05;;;1.20;;
72639;SDS011;60683;51.730;8.762;2023-03-13T04:10:56;4.75;;;1.27;;
72639;SDS011;60683;51.730;8.762;2023-03-13T04:13:23;4.80;;;1.40;;
72639;SDS011;60683;51.730;8.762;2023-03-13T04:15:51;4.78;;;0.82;;
72639;SDS011;60683;51.730;8.762;2023-03-13T04:18:18;4.00;;;1.60;;
72639;SDS011;60683;51.730;8.762;2023-03-13T04:20:46;2.72;;;0.95;;
72639;SDS011;60683;51.730;8.762;2023-03-13T04:23:13;3.47;;;0.63;;
72639;SDS011;60683;51.730;8.762;2023-03-13T04:25:41;0.85;;;0.40;;
72639;SDS011;60683;51.730;8.762;2023-03-13T04:28:11;1.30;;;0.50;;
72639;SDS011;60683;51.730;8.762;2023-03-13T04:30:39;2.47;;;0.60;;
72639;SDS011;60683;51.730;8.762;2023-03-13T04:33:07;3.20;;;0.80;;
72639;SDS011;60683;51.730;8.762;2023-03-13T04:35:35;2.03;;;0.68;;
72639;SDS011;60683;51.730;8.762;2023-03-13T04:38:03;3.05;;;0.73;;
72639;SDS011;60683;51.730;8.762;2023-03-13T04:40:30;2.35;;;0.25;;
72639;SDS011;60683;51.730;8.762;2023-03-13T04:42:58;1.13;;;0.55;;
72639;SDS011;60683;51.730;8.762;2023-03-13T04:45:27;1.90;;;0.57;;
72639;SDS011;60683;51.730;8.762;2023-03-13T04:47:55;2.33;;;0.65;;
72639;SDS011;60683;51.730;8.762;2023-03-13T04:50:22;2.45;;;0.50;;
72639;SDS011;60683;51.730;8.762;2023-03-13T04:52:50;1.50;;;0.50;;
72639;SDS011;60683;51.730;8.762;2023-03-13T04:55:18;2.92;;;0.60;;
72639;SDS011;60683;51.730;8.762;2023-03-13T04:57:46;2.50;;;0.63;;
72639;SDS011;60683;51.730;8.762;2023-03-13T05:00:13;2.33;;;0.77;;
72639;SDS011;60683;51.730;8.762;2023-03-13T05:02:43;1.55;;;0.50;;
72639;SDS011;60683;51.730;8.762;2023-03-13T05:05:10;2.58;;;0.77;;
72639;SDS011;60683;51.730;8.762;2023-03-13T05:07:38;4.82;;;1.00;;
72639;SDS011;60683;51.730;8.762;2023-03-13T05:10:06;1.23;;;0.70;;
72639;SDS011;60683;51.730;8.762;2023-03-13T05:12:34;3.97;;;0.70;;
72639;SDS011;60683;51.730;8.762;2023-03-13T05:15:02;3.15;;;0.60;;
72639;SDS011;60683;51.730;8.762;2023-03-13T05:17:30;2.08;;;0.55;;
72639;SDS011;60683;51.730;8.762;2023-03-13T05:19:59;1.35;;;0.60;;
72639;SDS011;60683;51.730;8.762;2023-03-13T05:22:27;1.85;;;0.57;;
72639;SDS011;60683;51.730;8.762;2023-03-13T05:24:54;3.70;;;0.50;;
72639;SDS011;60683;51.730;8.762;2023-03-13T05:27:22;2.92;;;0.75;;
72639;SDS011;60683;51.730;8.762;2023-03-13T05:29:49;3.00;;;0.88;;
72639;SDS011;60683;51.730;8.762;2023-03-13T05:32:17;1.80;;;0.75;;
72639;SDS011;60683;51.730;8.762;2023-03-13T05:34:44;3.55;;;0.82;;
72639;SDS011;60683;51.730;8.762;2023-03-13T05:37:14;2.47;;;0.70;;
72639;SDS011;60683;51.730;8.762;2023-03-13T05:39:41;1.80;;;0.80;;
72639;SDS011;60683;51.730;8.762;2023-03-13T05:42:09;1.23;;;0.43;;
72639;SDS011;60683;51.730;8.762;2023-03-13T05:44:37;5.07;;;1.10;;
72639;SDS011;60683;51.730;8.762;2023-03-13T05:47:05;1.70;;;0.57;;
72639;SDS011;60683;51.730;8.762;2023-03-13T05:49:32;1.85;;;0.95;;
72639;SDS011;60683;51.730;8.762;2023-03-13T05:52:00;2.67;;;0.73;;
72639;SDS011;60683;51.730;8.762;2023-03-13T05:54:29;6.82;;;0.77;;
72639;SDS011;60683;51.730;8.762;2023-03-13T05:56:56;1.48;;;0.63;;
72639;SDS011;60683;51.730;8.762;2023-03-13T05:59:24;1.33;;;0.60;;
72639;SDS011;60683;51.730;8.762;2023-03-13T06:01:51;2.85;;;0.63;;
72639;SDS011;60683;51.730;8.762;2023-03-13T06:04:19;1.42;;;0.50;;
72639;SDS011;60683;51.730;8.762;2023-03-13T06:06:46;2.55;;;0.52;;
72639;SDS011;60683;51.730;8.762;2023-03-13T06:09:14;2.97;;;0.95;;
72639;SDS011;60683;51.730;8.762;2023-03-13T06:11:43;2.63;;;0.70;;
72639;SDS011;60683;51.730;8.762;2023-03-13T06:14:10;2.30;;;0.45;;
72639;SDS011;60683;51.730;8.762;2023-03-13T06:16:38;1.90;;;0.70;;
72639;SDS011;60683;51.730;8.762;2023-03-13T06:19:05;4.13;;;1.38;;
72639;SDS011;60683;51.730;8.762;2023-03-13T06:21:33;2.65;;;1.35;;
72639;SDS011;60683;51.730;8.762;2023-03-13T06:24:01;1.67;;;0.85;;
72639;SDS011;60683;51.730;8.762;2023-03-13T06:26:28;2.20;;;0.80;;
72639;SDS011;60683;51.730;8.762;2023-03-13T06:28:57;2.70;;;0.40;;
72639;SDS011;60683;51.730;8.762;2023-03-13T06:31:25;1.95;;;0.52;;
72639;SDS011;60683;51.730;8.762;2023-03-13T06:33:53;1.17;;;0.32;;
72639;SDS011;60683;51.730;8.762;2023-03-13T06:36:21;1.75;;;0.52;;
72639;SDS011;60683;51.730;8.762;2023-03-13T06:38:48;2.10;;;0.43;;
72639;SDS011;60683;51.730;8.762;2023-03-13T06:41:16;0.50;;;0.30;;
72639;SDS011;60683;51.730;8.762;2023-03-13T06:43:44;1.20;;;0.43;;
72639;SDS011;60683;51.730;8.762;2023-03-13T06:46:14;2.22;;;0.88;;
72639;SDS011;60683;51.730;8.762;2023-03-13T06:48:43;1.50;;;0.50;;
72639;SDS011;60683;51.730;8.762;2023-03-13T06:51:12;1.55;;;0.73;;
72639;SDS011;60683;51.730;8.762;2023-03-13T06:53:40;0.80;;;0.30;;
72639;SDS011;60683;51.730;8.762;2023-03-13T06:56:08;2.22;;;0.70;;
72639;SDS011;60683;51.730;8.762;2023-03-13T06:58:35;2.15;;;0.70;;
72639;SDS011;60683;51.730;8.762;2023-03-13T07:01:04;1.13;;;0.65;;
72639;SDS011;60683;51.730;8.762;2023-03-13T07:03:34;1.02;;;0.38;;
72639;SDS011;60683;51.730;8.762;2023-03-13T07:06:02;2.03;;;0.75;;
72639;SDS011;60683;51.730;8.762;2023-03-13T07:08:30;1.42;;;0.50;;
72639;SDS011;60683;51.730;8.762;2023-03-13T07:10:59;1.85;;;0.60;;
72639;SDS011;60683;51.730;8.762;2023-03-13T07:13:28;1.60;;;0.60;;
72639;SDS011;60683;51.730;8.762;2023-03-13T07:15:58;1.13;;;0.40;;
72639;SDS011;60683;51.730;8.762;2023-03-13T07:18:26;1.90;;;0.68;;
72639;SDS011;60683;51.730;8.762;2023-03-13T07:20:55;0.80;;;0.52;;
72639;SDS011;60683;51.730;8.762;2023-03-13T07:25:52;0.57;;;0.32;;
72639;SDS011;60683;51.730;8.762;2023-03-13T07:28:20;2.13;;;0.90;;
72639;SDS011;60683;51.730;8.762;2023-03-13T07:30:48;2.40;;;0.70;;
72639;SDS011;60683;51.730;8.762;2023-03-13T07:33:15;1.52;;;0.60;;
72639;SDS011;60683;51.730;8.762;2023-03-13T07:35:46;2.47;;;0.73;;
72639;SDS011;60683;51.730;8.762;2023-03-13T07:38:16;2.97;;;0.70;;
72639;SDS011;60683;51.730;8.762;2023-03-13T07:40:47;3.42;;;0.82;;
72639;SDS011;60683;51.730;8.762;2023-03-13T07:43:15;3.22;;;0.68;;
72639;SDS011;60683;51.730;8.762;2023-03-13T07:45:50;4.07;;;0.85;;
72639;SDS011;60683;51.730;8.762;2023-03-13T07:48:21;3.90;;;0.93;;
72639;SDS011;60683;51.730;8.762;2023-03-13T07:50:50;2.35;;;0.57;;
72639;SDS011;60683;51.730;8.762;2023-03-13T07:53:22;1.65;;;0.63;;
72639;SDS011;60683;51.730;8.762;2023-03-13T07:55:50;2.38;;;0.95;;
72639;SDS011;60683;51.730;8.762;2023-03-13T07:58:19;1.25;;;0.63;;
72639;SDS011;60683;51.730;8.762;2023-03-13T08:00:47;1.88;;;0.63;;
72639;SDS011;60683;51.730;8.762;2023-03-13T08:03:14;0.80;;;0.47;;
72639;SDS011;60683;51.730;8.762;2023-03-13T08:05:42;0.98;;;0.50;;
72639;SDS011;60683;51.730;8.762;2023-03-13T08:08:09;1.38;;;0.63;;
72639;SDS011;60683;51.730;8.762;2023-03-13T08:10:39;2.17;;;0.63;;
72639;SDS011;60683;51.730;8.762;2023-03-13T08:13:06;1.38;;;0.70;;
72639;SDS011;60683;51.730;8.762;2023-03-13T08:15:33;1.45;;;0.55;;
72639;SDS011;60683;51.730;8.762;2023-03-13T08:18:01;1.92;;;0.80;;
72639;SDS011;60683;51.730;8.762;2023-03-13T08:20:28;1.17;;;0.50;;
72639;SDS011;60683;51.730;8.762;2023-03-13T08:22:56;1.15;;;0.50;;
72639;SDS011;60683;51.730;8.762;2023-03-13T08:25:24;2.17;;;0.90;;
72639;SDS011;60683;51.730;8.762;2023-03-13T08:27:52;1.73;;;0.70;;
72639;SDS011;60683;51.730;8.762;2023-03-13T08:30:21;1.10;;;0.55;;
72639;SDS011;60683;51.730;8.762;2023-03-13T08:32:48;1.45;;;0.43;;
72639;SDS011;60683;51.730;8.762;2023-03-13T08:35:16;3.20;;;0.60;;
72639;SDS011;60683;51.730;8.762;2023-03-13T08:37:43;1.20;;;0.60;;
72639;SDS011;60683;51.730;8.762;2023-03-13T08:40:12;1.70;;;0.50;;
72639;SDS011;60683;51.730;8.762;2023-03-13T08:42:39;2.67;;;0.90;;
72639;SDS011;60683;51.730;8.762;2023-03-13T08:45:09;1.92;;;0.85;;
72639;SDS011;60683;51.730;8.762;2023-03-13T08:47:36;2.35;;;0.85;;
72639;SDS011;60683;51.730;8.762;2023-03-13T08:50:04;2.33;;;0.88;;
72639;SDS011;60683;51.730;8.762;2023-03-13T08:52:32;2.88;;;1.02;;
72639;SDS011;60683;51.730;8.762;2023-03-13T08:55:00;2.25;;;0.80;;
72639;SDS011;60683;51.730;8.762;2023-03-13T08:57:27;2.92;;;0.95;;
72639;SDS011;60683;51.730;8.762;2023-03-13T08:59:54;3.00;;;0.80;;
72639;SDS011;60683;51.730;8.762;2023-03-13T09:02:23;2.65;;;1.05;;
72639;SDS011;60683;51.730;8.762;2023-03-13T09:04:51;2.92;;;1.20;;
72639;SDS011;60683;51.730;8.762;2023-03-13T09:07:18;2.05;;;0.85;;
72639;SDS011;60683;51.730;8.762;2023-03-13T09:09:46;3.25;;;1.13;;
72639;SDS011;60683;51.730;8.762;2023-03-13T09:12:13;3.28;;;1.77;;
72639;SDS011;60683;51.730;8.762;2023-03-13T09:14:41;1.13;;;0.40;;
72639;SDS011;60683;51.730;8.762;2023-03-13T09:17:08;1.85;;;0.80;;
72639;SDS011;60683;51.730;8.762;2023-03-13T09:19:37;5.70;;;1.33;;
72639;SDS011;60683;51.730;8.762;2023-03-13T09:22:05;1.45;;;0.73;;
72639;SDS011;60683;51.730;8.762;2023-03-13T09:24:33;2.40;;;0.95;;
72639;SDS011;60683;51.730;8.762;2023-03-13T09:27:00;2.47;;;0.95;;
72639;SDS011;60683;51.730;8.762;2023-03-13T09:29:28;1.75;;;0.77;;
72639;SDS011;60683;51.730;8.762;2023-03-13T09:31:55;3.65;;;0.80;;
72639;SDS011;60683;51.730;8.762;2023-03-13T09:34:23;4.97;;;1.70;;
72639;SDS011;60683;51.730;8.762;2023-03-13T09:36:52;2.63;;;0.90;;
72639;SDS011;60683;51.730;8.762;2023-03-13T09:39:19;2.13;;;0.70;;
72639;SDS011;60683;51.730;8.762;2023-03-13T09:41:49;2.63;;;1.10;;
72639;SDS011;60683;51.730;8.762;2023-03-13T09:44:21;2.30;;;1.08;;
72639;SDS011;60683;51.730;8.762;2023-03-13T09:46:54;2.05;;;0.90;;
72639;SDS011;60683;51.730;8.762;2023-03-13T09:49:28;3.25;;;0.93;;
72639;SDS011;60683;51.730;8.762;2023-03-13T09:51:59;2.90;;;0.88;;
72639;SDS011;60683;51.730;8.762;2023-03-13T09:54:33;3.25;;;1.00;;
72639;SDS011;60683;51.730;8.762;2023-03-13T09:57:04;2.90;;;1.00;;
72639;SDS011;60683;51.730;8.762;2023-03-13T09:59:36;2.15;;;1.00;;
72639;SDS011;60683;51.730;8.762;2023-03-13T10:02:15;1.92;;;1.00;;
72639;SDS011;60683;51.730;8.762;2023-03-13T10:04:49;2.33;;;1.10;;
72639;SDS011;60683;51.730;8.762;2023-03-13T10:07:19;3.17;;;1.25;;
72639;SDS011;60683;51.730;8.762;2023-03-13T10:09:47;2.00;;;0.85;;
72639;SDS011;60683;51.730;8.762;2023-03-13T10:12:15;2.78;;;1.25;;
72639;SDS011;60683;51.730;8.762;2023-03-13T10:14:47;2.72;;;1.13;;
72639;SDS011;60683;51.730;8.762;2023-03-13T10:17:27;2.78;;;1.13;;
72639;SDS011;60683;51.730;8.762;2023-03-13T10:19:59;2.08;;;0.93;;
72639;SDS011;60683;51.730;8.762;2023-03-13T10:22:35;2.72;;;1.00;;
72639;SDS011;60683;51.730;8.762;2023-03-13T10:25:04;2.20;;;0.80;;
72639;SDS011;60683;51.730;8.762;2023-03-13T10:27:41;2.58;;;1.20;;
72639;SDS011;60683;51.730;8.762;2023-03-13T10:32:39;1.67;;;0.82;;
72639;SDS011;60683;51.730;8.762;2023-03-13T10:35:07;2.25;;;0.95;;
72639;SDS011;60683;51.730;8.762;2023-03-13T10:37:41;4.75;;;1.08;;
72639;SDS011;60683;51.730;8.762;2023-03-13T10:40:10;2.88;;;0.77;;
72639;SDS011;60683;51.730;8.762;2023-03-13T10:42:41;3.72;;;0.93;;
72639;SDS011;60683;51.730;8.762;2023-03-13T10:45:13;2.63;;;1.48;;
72639;SDS011;60683;51.730;8.762;2023-03-13T10:47:41;3.70;;;1.17;;
72639;SDS011;60683;51.730;8.762;2023-03-13T10:50:11;2.83;;;1.13;;
72639;SDS011;60683;51.730;8.762;2023-03-13T10:52:45;5.07;;;1.38;;
72639;SDS011;60683;51.730;8.762;2023-03-13T10:55:16;2.33;;;0.95;;
72639;SDS011;60683;51.730;8.762;2023-03-13T10:57:50;3.08;;;1.00;;
72639;SDS011;60683;51.730;8.762;2023-03-13T11:00:27;3.28;;;1.10;;
72639;SDS011;60683;51.730;8.762;2023-03-13T11:02:56;2.05;;;1.00;;
72639;SDS011;60683;51.730;8.762;2023-03-13T11:05:31;3.45;;;1.30;;
72639;SDS011;60683;51.730;8.762;2023-03-13T11:08:10;2.63;;;1.42;;
72639;SDS011;60683;51.730;8.762;2023-03-13T11:10:58;3.20;;;1.05;;
72639;SDS011;60683;51.730;8.762;2023-03-13T11:13:32;3.08;;;1.08;;
72639;SDS011;60683;51.730;8.762;2023-03-13T11:16:17;1.98;;;0.90;;
72639;SDS011;60683;51.730;8.762;2023-03-13T11:18:50;2.70;;;1.25;;
72639;SDS011;60683;51.730;8.762;2023-03-13T11:21:30;1.98;;;0.70;;
72639;SDS011;60683;51.730;8.762;2023-03-13T11:24:03;3.53;;;1.10;;
72639;SDS011;60683;51.730;8.762;2023-03-13T11:26:34;2.85;;;1.00;;
72639;SDS011;60683;51.730;8.762;2023-03-13T11:29:04;3.47;;;0.98;;
72639;SDS011;60683;51.730;8.762;2023-03-13T11:31:38;1.83;;;0.73;;
72639;SDS011;60683;51.730;8.762;2023-03-13T11:34:10;5.10;;;0.95;;
72639;SDS011;60683;51.730;8.762;2023-03-13T11:36:42;1.38;;;0.70;;
72639;SDS011;60683;51.730;8.762;2023-03-13T11:39:22;2.33;;;0.82;;
72639;SDS011;60683;51.730;8.762;2023-03-13T11:41:59;1.23;;;0.60;;
72639;SDS011;60683;51.730;8.762;2023-03-13T11:44:44;1.45;;;0.60;;
72639;SDS011;60683;51.730;8.762;2023-03-13T11:47:21;1.38;;;0.70;;
72639;SDS011;60683;51.730;8.762;2023-03-13T11:50:14;2.13;;;0.85;;
72639;SDS011;60683;51.730;8.762;2023-03-13T11:52:57;3.40;;;1.23;;
72639;SDS011;60683;51.730;8.762;2023-03-13T11:55:38;3.05;;;0.57;;
72639;SDS011;60683;51.730;8.762;2023-03-13T11:58:21;1.98;;;0.60;;
72639;SDS011;60683;51.730;8.762;2023-03-13T12:00:58;1.67;;;0.75;;
72639;SDS011;60683;51.730;8.762;2023-03-13T12:03:30;1.88;;;0.73;;
72639;SDS011;60683;51.730;8.762;2023-03-13T12:06:02;2.17;;;0.55;;
72639;SDS011;60683;51.730;8.762;2023-03-13T12:08:33;1.38;;;0.60;;
72639;SDS011;60683;51.730;8.762;2023-03-13T12:11:05;2.35;;;0.70;;
72639;SDS011;60683;51.730;8.762;2023-03-13T12:13:39;3.25;;;0.65;;
72639;SDS011;60683;51.730;8.762;2023-03-13T12:16:10;1.52;;;0.60;;
72639;SDS011;60683;51.730;8.762;2023-03-13T12:18:39;2.03;;;0.80;;
72639;SDS011;60683;51.730;8.762;2023-03-13T12:21:10;1.70;;;0.50;;
72639;SDS011;60683;51.730;8.762;2023-03-13T12:23:45;1.88;;;0.60;;
72639;SDS011;60683;51.730;8.762;2023-03-13T12:26:16;1.48;;;0.63;;
72639;SDS011;60683;51.730;8.762;2023-03-13T12:28:44;1.25;;;0.57;;
72639;SDS011;60683;51.730;8.762;2023-03-13T12:31:20;2.35;;;0.70;;
72639;SDS011;60683;51.730;8.762;2023-03-13T12:33:52;2.03;;;0.73;;
72639;SDS011;60683;51.730;8.762;2023-03-13T12:36:21;1.80;;;0.75;;
72639;SDS011;60683;51.730;8.762;2023-03-13T12:38:54;2.38;;;0.85;;
72639;SDS011;60683;51.730;8.762;2023-03-13T12:41:24;1.83;;;0.50;;
72639;SDS011;60683;51.730;8.762;2023-03-13T12:43:54;2.38;;;0.85;;
72639;SDS011;60683;51.730;8.762;2023-03-13T12:46:29;2.83;;;0.77;;
72639;SDS011;60683;51.730;8.762;2023-03-13T12:58:11;1.25;;;0.60;;
72639;SDS011;60683;51.730;8.762;2023-03-13T13:00:41;3.65;;;1.02;;
72639;SDS011;60683;51.730;8.762;2023-03-13T13:03:17;1.42;;;0.60;;
72639;SDS011;60683;51.730;8.762;2023-03-13T13:06:05;3.22;;;0.90;;
72639;SDS011;60683;51.730;8.762;2023-03-13T13:08:38;0.52;;;0.28;;
72639;SDS011;60683;51.730;8.762;2023-03-13T13:17:21;1.67;;;0.57;;
72639;SDS011;60683;51.730;8.762;2023-03-13T13:19:53;1.60;;;0.68;;
72639;SDS011;60683;51.730;8.762;2023-03-13T13:28:09;1.10;;;0.60;;
72639;SDS011;60683;51.730;8.762;2023-03-13T13:30:46;1.42;;;0.80;;
72639;SDS011;60683;51.730;8.762;2023-03-13T13:33:33;1.10;;;0.55;;
72639;SDS011;60683;51.730;8.762;2023-03-13T13:38:57;2.72;;;0.52;;
72639;SDS011;60683;51.730;8.762;2023-03-13T13:41:26;1.75;;;0.60;;
72639;SDS011;60683;51.730;8.762;2023-03-13T13:44:20;2.47;;;0.73;;
72639;SDS011;60683;51.730;8.762;2023-03-13T13:46:55;1.23;;;0.40;;
72639;SDS011;60683;51.730;8.762;2023-03-13T13:49:26;1.85;;;0.47;;
72639;SDS011;60683;51.730;8.762;2023-03-13T13:52:18;1.23;;;0.38;;
72639;SDS011;60683;51.730;8.762;2023-03-13T13:54:57;3.22;;;0.50;;
72639;SDS011;60683;51.730;8.762;2023-03-13T13:57:25;1.10;;;0.52;;
72639;SDS011;60683;51.730;8.762;2023-03-13T13:59:55;0.93;;;0.30;;
72639;SDS011;60683;51.730;8.762;2023-03-13T14:02:29;0.82;;;0.30;;
72639;SDS011;60683;51.730;8.762;2023-03-13T14:05:03;1.08;;;0.32;;
72639;SDS011;60683;51.730;8.762;2023-03-13T14:10:31;0.93;;;0.47;;
72639;SDS011;60683;51.730;8.762;2023-03-13T14:13:02;0.65;;;0.28;;
72639;SDS011;60683;51.730;8.762;2023-03-13T14:15:40;3.63;;;0.40;;
72639;SDS011;60683;51.730;8.762;2023-03-13T14:18:10;2.70;;;0.60;;
72639;SDS011;60683;51.730;8.762;2023-03-13T14:20:50;0.63;;;0.30;;
72639;SDS011;60683;51.730;8.762;2023-03-13T14:23:34;0.60;;;0.30;;
72639;SDS011;60683;51.730;8.762;2023-03-13T14:26:07;1.77;;;0.55;;
72639;SDS011;60683;51.730;8.762;2023-03-13T14:28:37;1.58;;;0.63;;
72639;SDS011;60683;51.730;8.762;2023-03-13T14:31:07;0.98;;;0.40;;
72639;SDS011;60683;51.730;8.762;2023-03-13T14:33:34;0.68;;;0.30;;
72639;SDS011;60683;51.730;8.762;2023-03-13T14:36:02;1.10;;;0.50;;
72639;SDS011;60683;51.730;8.762;2023-03-13T14:38:30;1.30;;;0.63;;
72639;SDS011;60683;51.730;8.762;2023-03-13T14:41:00;0.77;;;0.30;;
72639;SDS011;60683;51.730;8.762;2023-03-13T14:43:30;0.77;;;0.30;;
72639;SDS011;60683;51.730;8.762;2023-03-13T14:45:58;0.65;;;0.25;;
72639;SDS011;60683;51.730;8.762;2023-03-13T14:48:27;0.90;;;0.47;;
72639;SDS011;60683;51.730;8.762;2023-03-13T14:50:59;1.60;;;0.50;;
72639;SDS011;60683;51.730;8.762;2023-03-13T14:53:28;3.95;;;0.85;;
72639;SDS011;60683;51.730;8.762;2023-03-13T14:56:10;1.27;;;0.35;;
72639;SDS011;60683;51.730;8.762;2023-03-13T14:58:39;1.30;;;0.55;;
72639;SDS011;60683;51.730;8.762;2023-03-13T15:01:19;1.80;;;0.60;;
72639;SDS011;60683;51.730;8.762;2023-03-13T15:03:49;2.13;;;0.55;;
72639;SDS011;60683;51.730;8.762;2023-03-13T15:06:18;1.40;;;0.60;;
72639;SDS011;60683;51.730;8.762;2023-03-13T15:08:47;0.95;;;0.38;;
72639;SDS011;60683;51.730;8.762;2023-03-13T15:11:24;1.02;;;0.50;;
72639;SDS011;60683;51.730;8.762;2023-03-13T15:13:53;2.05;;;0.60;;
72639;SDS011;60683;51.730;8.762;2023-03-13T15:16:22;1.52;;;0.60;;
72639;SDS011;60683;51.730;8.762;2023-03-13T15:18:50;1.17;;;0.50;;
72639;SDS011;60683;51.730;8.762;2023-03-13T15:21:20;1.60;;;0.60;;
72639;SDS011;60683;51.730;8.762;2023-03-13T15:23:50;1.50;;;0.60;;
72639;SDS011;60683;51.730;8.762;2023-03-13T15:26:19;1.55;;;0.52;;
72639;SDS011;60683;51.730;8.762;2023-03-13T15:28:49;1.38;;;0.50;;
72639;SDS011;60683;51.730;8.762;2023-03-13T15:31:17;0.60;;;0.20;;
72639;SDS011;60683;51.730;8.762;2023-03-13T15:33:46;1.80;;;0.70;;
72639;SDS011;60683;51.730;8.762;2023-03-13T15:36:14;0.63;;;0.30;;